createdAt,value
2022-11-05T00:00:17.186Z,7.24
2022-11-05T00:03:01.885Z,7.19
2022-11-05T00:05:47.209Z,7.09
2022-11-05T00:08:32.680Z,7.02
2022-11-05T00:10:59.218Z,6.95
2022-11-05T00:13:44.035Z,6.91
2022-11-05T00:16:28.835Z,6.89
2022-11-05T00:19:21.239Z,6.82
2022-11-05T00:22:06.129Z,6.78
2022-11-05T00:24:50.737Z,6.72
2022-11-05T00:27:17.053Z,6.69
2022-11-05T00:29:43.344Z,6.65
2022-11-05T00:32:09.661Z,6.58
2022-11-05T00:34:36.031Z,6.51
2022-11-05T00:37:02.330Z,6.40
2022-11-05T00:39:28.630Z,6.32
2022-11-05T00:42:13.596Z,6.23
2022-11-05T00:44:58.904Z,6.16
2022-11-05T00:47:57.340Z,6.02
2022-11-05T00:50:24.504Z,5.88
2022-11-05T00:52:55.415Z,5.90
2022-11-05T00:55:48.866Z,5.90
2022-11-05T00:58:17.465Z,5.88
2022-11-05T01:00:48.327Z,5.85
2022-11-05T01:03:16.482Z,5.86
2022-11-05T01:05:45.144Z,5.87
2022-11-05T01:08:12.557Z,5.84
2022-11-05T01:10:44.121Z,5.81
2022-11-05T01:13:13.171Z,5.73
2022-11-05T01:15:40.712Z,5.69
2022-11-05T01:18:07.514Z,5.63
2022-11-05T01:20:33.972Z,5.57
2022-11-05T01:23:00.342Z,5.55
2022-11-05T01:25:27.026Z,5.55
2022-11-05T01:27:53.424Z,5.52
2022-11-05T01:30:19.857Z,5.43
2022-11-05T01:32:46.231Z,5.37
2022-11-05T01:35:14.860Z,5.29
2022-11-05T01:37:41.501Z,5.27
2022-11-05T01:40:11.666Z,5.31
2022-11-05T01:42:38.000Z,5.31
2022-11-05T01:45:26.609Z,5.31
2022-11-05T01:47:58.872Z,5.27
2022-11-05T01:51:02.481Z,5.21
2022-11-05T01:53:53.455Z,5.16
2022-11-05T01:56:45.408Z,5.13
2022-11-05T01:59:16.297Z,5.10
2022-11-05T02:01:42.686Z,5.05
2022-11-05T02:04:14.790Z,5.04
2022-11-05T02:06:46.617Z,5.06
2022-11-05T02:09:19.870Z,5.06
2022-11-05T02:11:46.710Z,5.02
2022-11-05T02:14:13.021Z,5.07
2022-11-05T02:16:48.765Z,5.11
2022-11-05T02:20:03.788Z,5.17
2022-11-05T02:22:42.332Z,5.24
2022-11-05T02:25:23.822Z,5.27
2022-11-05T02:28:27.731Z,5.28
2022-11-05T02:30:57.929Z,5.28
2022-11-05T02:33:48.343Z,5.29
2022-11-05T02:36:39.394Z,5.29
2022-11-05T02:39:42.866Z,5.20
2022-11-05T02:42:42.920Z,5.08
2022-11-05T02:45:34.353Z,5.04
2022-11-05T02:48:23.432Z,5.07
2022-11-05T02:51:08.346Z,5.09
2022-11-05T02:54:02.578Z,5.13
2022-11-05T02:56:32.580Z,5.10
2022-11-05T02:58:58.881Z,5.11
2022-11-05T03:01:25.483Z,5.11
2022-11-05T03:03:55.710Z,5.11
2022-11-05T03:06:42.125Z,5.10
2022-11-05T03:09:41.801Z,5.11
2022-11-05T03:12:29.912Z,5.12
2022-11-05T03:15:15.009Z,5.10
2022-11-05T03:17:55.393Z,5.09
2022-11-05T03:20:30.366Z,5.03
2022-11-05T03:23:24.845Z,4.99
2022-11-05T03:26:12.356Z,4.95
2022-11-05T03:28:43.016Z,4.97
2022-11-05T03:31:14.100Z,4.95
2022-11-05T03:33:43.025Z,4.93
2022-11-05T03:36:19.219Z,4.90
2022-11-05T03:38:50.134Z,4.89
2022-11-05T03:41:18.353Z,4.89
2022-11-05T03:43:49.868Z,4.85
2022-11-05T03:46:21.371Z,4.84
2022-11-05T03:48:52.717Z,4.84
2022-11-05T03:51:37.846Z,4.84
2022-11-05T03:54:05.057Z,4.84
2022-11-05T03:56:45.177Z,4.85
2022-11-05T03:59:12.548Z,4.86
2022-11-05T04:01:41.472Z,4.87
2022-11-05T04:04:09.592Z,4.88
2022-11-05T04:06:54.827Z,4.91
2022-11-05T04:09:39.462Z,4.88
2022-11-05T04:12:44.542Z,4.92
2022-11-05T04:15:10.883Z,4.93
2022-11-05T04:17:37.372Z,4.94
2022-11-05T04:20:22.423Z,4.87
2022-11-05T04:23:07.167Z,4.85
2022-11-05T04:25:33.981Z,4.88
2022-11-05T04:28:00.599Z,4.96
2022-11-05T04:30:27.546Z,5.01
2022-11-05T04:32:59.111Z,5.09
2022-11-05T04:35:26.340Z,5.16
2022-11-05T04:37:52.856Z,5.24
2022-11-05T04:40:19.239Z,5.31
2022-11-05T04:42:45.586Z,5.39
2022-11-05T04:45:12.082Z,5.43
2022-11-05T04:47:38.465Z,5.46
2022-11-05T04:50:05.185Z,5.47
2022-11-05T04:52:31.483Z,5.50
2022-11-05T04:54:57.998Z,5.55
2022-11-05T04:57:24.310Z,5.57
2022-11-05T04:59:51.888Z,5.63
2022-11-05T05:02:18.297Z,5.68
2022-11-05T05:04:44.885Z,5.73
2022-11-05T05:07:11.181Z,5.75
2022-11-05T05:09:37.527Z,5.80
2022-11-05T05:12:03.947Z,5.84
2022-11-05T05:14:30.262Z,5.87
2022-11-05T05:16:56.668Z,5.89
2022-11-05T05:19:24.602Z,5.92
2022-11-05T05:21:50.893Z,5.95
2022-11-05T05:24:19.414Z,5.99
2022-11-05T05:26:50.834Z,6.01
2022-11-05T05:29:18.416Z,6.02
2022-11-05T05:31:45.344Z,6.03
2022-11-05T05:34:13.308Z,6.03
2022-11-05T05:36:39.685Z,6.00
2022-11-05T05:39:07.577Z,5.95
2022-11-05T05:41:34.153Z,5.88
2022-11-05T05:44:00.453Z,5.81
2022-11-05T05:46:26.780Z,5.76
2022-11-05T05:48:53.086Z,5.71
2022-11-05T05:51:19.671Z,5.64
2022-11-05T05:53:46.203Z,5.58
2022-11-05T05:56:14.889Z,5.49
2022-11-05T05:58:41.266Z,5.44
2022-11-05T06:01:15.585Z,5.38
2022-11-05T06:03:44.934Z,5.38
2022-11-05T06:06:13.178Z,5.40
2022-11-05T06:08:40.251Z,5.42
2022-11-05T06:11:07.569Z,5.41
2022-11-05T06:13:34.429Z,5.42
2022-11-05T06:16:02.420Z,5.42
2022-11-05T06:18:32.249Z,5.42
2022-11-05T06:21:05.987Z,5.43
2022-11-05T06:23:37.251Z,5.41
2022-11-05T06:26:09.543Z,5.42
2022-11-05T06:28:36.193Z,5.41
2022-11-05T06:31:02.681Z,5.40
2022-11-05T06:33:29.632Z,5.37
2022-11-05T06:35:59.430Z,5.39
2022-11-05T06:38:25.742Z,5.38
2022-11-05T06:40:52.079Z,5.37
2022-11-05T06:43:18.382Z,5.40
2022-11-05T06:45:44.722Z,5.45
2022-11-05T06:48:11.057Z,5.52
2022-11-05T06:50:37.387Z,5.57
2022-11-05T06:53:04.769Z,5.64
2022-11-05T06:55:31.710Z,5.70
2022-11-05T06:57:58.120Z,5.73
2022-11-05T07:00:24.950Z,5.74
2022-11-05T07:02:51.298Z,5.75
2022-11-05T07:05:17.656Z,5.76
2022-11-05T07:07:45.271Z,5.79
2022-11-05T07:10:16.834Z,5.80
2022-11-05T07:12:43.882Z,5.81
2022-11-05T07:15:12.105Z,5.83
2022-11-05T07:17:39.705Z,5.86
2022-11-05T07:20:08.034Z,5.87
2022-11-05T07:22:35.463Z,5.88
2022-11-05T07:25:01.819Z,5.89
2022-11-05T07:27:28.365Z,5.89
2022-11-05T07:29:54.679Z,5.91
2022-11-05T07:32:20.993Z,5.92
2022-11-05T07:34:47.357Z,5.96
2022-11-05T07:37:16.471Z,6.06
2022-11-05T07:39:43.012Z,6.32
2022-11-05T07:42:13.376Z,6.45
2022-11-05T07:44:39.841Z,6.43
2022-11-05T07:47:06.182Z,6.44
2022-11-05T07:49:32.543Z,6.48
2022-11-05T07:51:58.863Z,6.62
2022-11-05T07:54:26.542Z,6.71
2022-11-05T07:56:53.028Z,6.90
2022-11-05T07:59:19.590Z,6.88
2022-11-05T08:01:46.114Z,7.05
2022-11-05T08:04:12.623Z,6.97
2022-11-05T08:06:39.041Z,6.91
2022-11-05T08:09:05.559Z,6.89
2022-11-05T08:11:32.178Z,6.90
2022-11-05T08:13:58.559Z,6.92
2022-11-05T08:16:24.914Z,6.98
2022-11-05T08:18:51.214Z,6.99
2022-11-05T08:21:17.547Z,7.03
2022-11-05T08:23:43.899Z,7.06
2022-11-05T08:26:10.189Z,7.09
2022-11-05T08:28:36.697Z,7.18
2022-11-05T08:31:03.033Z,7.32
2022-11-05T08:33:31.235Z,7.48
2022-11-05T08:36:02.177Z,7.75
2022-11-05T08:38:28.504Z,8.31
2022-11-05T08:40:57.510Z,8.15
2022-11-05T08:43:24.397Z,8.42
2022-11-05T08:45:50.771Z,8.82
2022-11-05T08:48:19.116Z,9.77
2022-11-05T08:50:48.073Z,10.66
2022-11-05T08:53:15.488Z,10.78
2022-11-05T08:55:42.511Z,11.11
2022-11-05T08:58:17.664Z,10.36
2022-11-05T09:00:46.071Z,9.78
2022-11-05T09:03:13.200Z,9.56
2022-11-05T09:05:40.827Z,9.28
2022-11-05T09:08:18.282Z,9.08
2022-11-05T09:10:46.166Z,9.04
2022-11-05T09:13:18.339Z,8.98
2022-11-05T09:15:45.889Z,8.99
2022-11-05T09:18:14.193Z,9.06
2022-11-05T09:20:40.812Z,8.99
2022-11-05T09:23:08.423Z,9.00
2022-11-05T09:25:35.122Z,9.03
2022-11-05T09:28:16.446Z,9.23
2022-11-05T09:30:45.437Z,9.27
2022-11-05T09:33:12.064Z,9.37
2022-11-05T09:35:40.036Z,9.47
2022-11-05T09:38:07.699Z,9.56
2022-11-05T09:40:57.946Z,9.57
2022-11-05T09:43:44.368Z,9.71
2022-11-05T09:46:26.286Z,9.81
2022-11-05T09:48:58.375Z,9.81
2022-11-05T09:51:24.715Z,9.85
2022-11-05T09:53:53.345Z,9.82
2022-11-05T09:56:29.513Z,9.81
2022-11-05T09:59:16.877Z,9.83
2022-11-05T10:01:45.611Z,9.87
2022-11-05T10:04:21.024Z,9.97
2022-11-05T10:07:01.860Z,10.02
2022-11-05T10:09:46.300Z,10.13
2022-11-05T10:12:20.945Z,10.45
2022-11-05T10:14:56.871Z,10.70
2022-11-05T10:17:27.278Z,10.81
2022-11-05T10:19:58.253Z,10.86
2022-11-05T10:22:24.938Z,10.91
2022-11-05T10:24:52.489Z,10.93
2022-11-05T10:27:25.339Z,10.92
2022-11-05T10:29:51.961Z,10.94
2022-11-05T10:32:39.392Z,10.92
2022-11-05T10:35:08.097Z,10.93
2022-11-05T10:37:40.691Z,10.89
2022-11-05T10:40:22.575Z,10.89
2022-11-05T10:43:00.800Z,10.88
2022-11-05T10:45:50.387Z,10.86
2022-11-05T10:48:32.513Z,10.86
2022-11-05T10:50:58.997Z,10.91
2022-11-05T10:53:35.552Z,10.89
2022-11-05T10:56:02.641Z,10.83
2022-11-05T10:58:31.393Z,10.82
2022-11-05T11:00:57.700Z,10.85
2022-11-05T11:03:42.973Z,10.84
2022-11-05T11:06:32.188Z,10.85
2022-11-05T11:09:01.809Z,10.91
2022-11-05T11:11:39.224Z,10.91
2022-11-05T11:14:18.077Z,10.88
2022-11-05T11:16:46.640Z,10.89
2022-11-05T11:19:34.804Z,10.88
2022-11-05T11:22:04.171Z,10.83
2022-11-05T11:24:37.249Z,10.85
2022-11-05T11:27:09.320Z,10.84
2022-11-05T11:29:41.995Z,10.79
2022-11-05T11:32:18.638Z,10.78
2022-11-05T11:34:48.944Z,10.81
2022-11-05T11:37:41.883Z,10.88
2022-11-05T11:40:23.954Z,10.91
2022-11-05T11:42:57.321Z,10.89
2022-11-05T11:45:32.517Z,10.94
2022-11-05T11:48:04.204Z,10.98
2022-11-05T11:50:35.284Z,11.02
2022-11-05T11:53:29.217Z,10.96
2022-11-05T11:55:55.536Z,10.92
2022-11-05T11:58:23.837Z,10.89
2022-11-05T12:01:03.782Z,10.85
2022-11-05T12:03:46.728Z,10.83
2022-11-05T12:06:27.496Z,10.88
2022-11-05T12:09:09.544Z,10.91
2022-11-05T12:11:41.678Z,10.91
2022-11-05T12:14:32.454Z,10.90
2022-11-05T12:17:23.078Z,10.98
2022-11-05T12:20:13.532Z,11.09
2022-11-05T12:22:58.210Z,11.19
2022-11-05T12:25:30.594Z,11.31
2022-11-05T12:28:28.326Z,11.40
2022-11-05T12:31:23.840Z,11.47
2022-11-05T12:34:08.919Z,11.68
2022-11-05T12:37:06.539Z,11.94
2022-11-05T12:39:43.618Z,11.96
2022-11-05T12:42:47.776Z,11.86
2022-11-05T12:45:45.594Z,11.77
2022-11-05T12:48:20.865Z,11.74
2022-11-05T12:50:59.273Z,11.75
2022-11-05T12:54:04.744Z,11.75
2022-11-05T12:56:43.434Z,11.63
2022-11-05T12:59:22.176Z,11.62
2022-11-05T13:02:02.419Z,11.61
2022-11-05T13:04:50.515Z,11.59
2022-11-05T13:07:27.629Z,11.57
2022-11-05T13:10:01.427Z,11.56
2022-11-05T13:12:33.014Z,11.58
2022-11-05T13:15:04.937Z,11.59
2022-11-05T13:17:51.246Z,11.55
2022-11-05T13:20:31.343Z,11.54
2022-11-05T13:23:06.763Z,11.53
2022-11-05T13:25:38.564Z,11.46
2022-11-05T13:28:10.830Z,11.45
2022-11-05T13:30:43.166Z,11.43
2022-11-05T13:33:17.806Z,11.43
2022-11-05T13:36:15.924Z,11.43
2022-11-05T13:38:59.765Z,11.44
2022-11-05T13:41:47.812Z,11.40
2022-11-05T13:44:52.026Z,11.56
2022-11-05T13:47:27.259Z,11.67
2022-11-05T13:50:27.701Z,11.64
2022-11-05T13:53:14.997Z,11.58
2022-11-05T13:56:06.278Z,11.50
2022-11-05T13:58:51.259Z,11.46
2022-11-05T14:01:37.121Z,11.39
2022-11-05T14:04:04.109Z,11.36
2022-11-05T14:06:36.417Z,11.36
2022-11-05T14:09:08.576Z,11.33
2022-11-05T14:11:42.685Z,11.30
2022-11-05T14:14:18.521Z,11.29
2022-11-05T14:16:52.645Z,11.26
2022-11-05T14:19:18.881Z,11.22
2022-11-05T14:21:46.236Z,11.15
2022-11-05T14:24:22.272Z,11.13
2022-11-05T14:27:00.493Z,11.11
2022-11-05T14:29:47.537Z,11.07
2022-11-05T14:32:45.489Z,11.00
2022-11-05T14:35:17.802Z,10.91
2022-11-05T14:37:53.715Z,10.86
2022-11-05T14:40:44.698Z,10.80
2022-11-05T14:43:14.338Z,10.77
2022-11-05T14:45:53.693Z,10.71
2022-11-05T14:48:43.874Z,10.67
2022-11-05T14:51:33.117Z,10.64
2022-11-05T14:54:35.570Z,10.59
2022-11-05T14:57:02.655Z,10.57
2022-11-05T14:59:28.926Z,10.53
2022-11-05T15:02:01.445Z,10.52
2022-11-05T15:04:42.531Z,10.53
2022-11-05T15:07:08.940Z,10.51
2022-11-05T15:09:41.009Z,10.50
2022-11-05T15:12:21.932Z,10.50
2022-11-05T15:14:57.437Z,10.48
2022-11-05T15:17:29.878Z,10.47
2022-11-05T15:20:07.856Z,10.47
2022-11-05T15:22:38.109Z,10.45
2022-11-05T15:25:14.178Z,10.43
2022-11-05T15:28:17.234Z,10.42
2022-11-05T15:31:19.234Z,10.41
2022-11-05T15:33:47.625Z,10.38
2022-11-05T15:36:30.387Z,10.35
2022-11-05T15:39:27.518Z,10.32
2022-11-05T15:41:44.657Z,10.30
2022-11-05T15:44:29.061Z,10.28
2022-11-05T15:47:27.333Z,10.25
2022-11-05T15:49:56.953Z,10.22
2022-11-05T15:52:31.133Z,10.22
2022-11-05T15:55:08.322Z,10.21
2022-11-05T15:57:39.912Z,10.20
2022-11-05T16:00:14.808Z,10.17
2022-11-05T16:02:41.454Z,10.16
2022-11-05T16:05:13.098Z,10.15
2022-11-05T16:07:46.526Z,10.14
2022-11-05T16:10:23.125Z,10.11
2022-11-05T16:12:49.763Z,10.10
2022-11-05T16:15:19.883Z,10.09
2022-11-05T16:17:52.573Z,10.06
2022-11-05T16:20:32.149Z,10.06
2022-11-05T16:23:01.575Z,10.06
2022-11-05T16:25:34.794Z,10.03
2022-11-05T16:28:01.754Z,10.02
2022-11-05T16:30:28.742Z,10.03
2022-11-05T16:33:03.664Z,10.03
2022-11-05T16:35:30.102Z,10.01
2022-11-05T16:37:56.414Z,10.00
2022-11-05T16:40:25.263Z,9.98
2022-11-05T16:42:53.740Z,9.96
2022-11-05T16:45:23.795Z,9.95
2022-11-05T16:47:51.058Z,9.94
2022-11-05T16:50:31.832Z,9.93
2022-11-05T16:52:58.195Z,9.91
2022-11-05T16:55:24.490Z,9.88
2022-11-05T16:57:54.202Z,9.90
2022-11-05T17:00:21.621Z,9.89
2022-11-05T17:02:48.416Z,9.90
2022-11-05T17:05:19.693Z,9.91
2022-11-05T17:07:46.418Z,9.88
2022-11-05T17:10:13.206Z,9.88
2022-11-05T17:12:39.587Z,9.88
2022-11-05T17:15:19.163Z,9.85
2022-11-05T17:17:45.813Z,9.85
2022-11-05T17:20:32.407Z,9.84
2022-11-05T17:23:02.047Z,9.85
2022-11-05T17:25:28.750Z,9.85
2022-11-05T17:27:55.515Z,9.85
2022-11-05T17:30:22.072Z,9.84
2022-11-05T17:32:48.550Z,9.84
2022-11-05T17:35:15.143Z,9.84
2022-11-05T17:37:41.832Z,9.85
2022-11-05T17:40:13.625Z,9.85
2022-11-05T17:42:39.977Z,9.84
2022-11-05T17:45:07.015Z,9.86
2022-11-05T17:47:33.326Z,9.85
2022-11-05T17:49:59.640Z,9.84
2022-11-05T17:52:27.620Z,9.85
2022-11-05T17:54:54.060Z,9.85
2022-11-05T17:57:20.455Z,9.86
2022-11-05T17:59:46.770Z,9.86
2022-11-05T18:02:13.493Z,9.86
2022-11-05T18:04:40.392Z,9.86
2022-11-05T18:07:07.182Z,9.85
2022-11-05T18:09:33.854Z,9.85
2022-11-05T18:12:00.239Z,9.85
2022-11-05T18:14:26.575Z,9.85
2022-11-05T18:16:55.243Z,9.85
2022-11-05T18:19:21.682Z,9.84
2022-11-05T18:21:47.982Z,9.80
2022-11-05T18:24:14.310Z,9.80
2022-11-05T18:26:40.659Z,9.79
2022-11-05T18:29:06.976Z,9.79
2022-11-05T18:31:33.277Z,9.77
2022-11-05T18:34:00.069Z,9.76
2022-11-05T18:36:29.482Z,9.75
2022-11-05T18:38:58.112Z,9.76
2022-11-05T18:41:24.543Z,9.76
2022-11-05T18:43:51.255Z,9.74
2022-11-05T18:46:42.995Z,9.74
2022-11-05T18:49:04.604Z,9.75
2022-11-05T18:51:31.478Z,9.74
2022-11-05T18:53:58.361Z,9.75
2022-11-05T18:56:24.757Z,9.76
2022-11-05T18:59:14.723Z,9.76
2022-11-05T19:01:40.574Z,9.76
2022-11-05T19:04:06.995Z,9.77
2022-11-05T19:06:34.189Z,9.76
2022-11-05T19:09:00.885Z,9.77
2022-11-05T19:11:27.401Z,9.76
2022-11-05T19:13:54.030Z,9.77
2022-11-05T19:16:25.538Z,9.75
2022-11-05T19:18:52.253Z,9.76
2022-11-05T19:21:21.616Z,9.77
2022-11-05T19:23:48.620Z,9.79
2022-11-05T19:26:28.659Z,9.77
2022-11-05T19:28:58.670Z,9.75
2022-11-05T19:31:25.305Z,9.68
2022-11-05T19:33:52.189Z,9.67
2022-11-05T19:36:20.598Z,9.66
2022-11-05T19:38:49.522Z,9.63
2022-11-05T19:41:18.268Z,9.61
2022-11-05T19:43:45.185Z,9.62
2022-11-05T19:46:17.982Z,9.60
2022-11-05T19:48:45.447Z,9.60
2022-11-05T19:51:15.818Z,9.62
2022-11-05T19:53:42.709Z,9.61
2022-11-05T19:56:13.063Z,9.61
2022-11-05T19:58:39.702Z,9.64
2022-11-05T20:01:06.364Z,9.64
2022-11-05T20:03:32.767Z,9.65
2022-11-05T20:06:04.329Z,9.66
2022-11-05T20:08:30.841Z,9.64
2022-11-05T20:10:57.625Z,9.65
2022-11-05T20:13:24.566Z,9.63
2022-11-05T20:15:51.066Z,9.60
2022-11-05T20:18:17.604Z,9.57
2022-11-05T20:20:44.660Z,9.57
2022-11-05T20:23:11.318Z,9.55
2022-11-05T20:25:37.688Z,9.52
2022-11-05T20:28:04.892Z,9.51
2022-11-05T20:30:31.286Z,9.51
2022-11-05T20:32:58.158Z,9.52
2022-11-05T20:35:24.745Z,9.55
2022-11-05T20:37:53.902Z,9.54
2022-11-05T20:40:20.699Z,9.56
2022-11-05T20:42:47.001Z,9.54
2022-11-05T20:45:13.529Z,9.53
2022-11-05T20:47:39.854Z,9.54
2022-11-05T20:50:06.975Z,9.54
2022-11-05T20:52:33.450Z,9.51
2022-11-05T20:55:01.076Z,9.51
2022-11-05T20:57:27.453Z,9.50
2022-11-05T20:59:53.790Z,9.46
2022-11-05T21:02:20.277Z,9.40
2022-11-05T21:04:47.446Z,9.37
2022-11-05T21:07:13.752Z,9.34
2022-11-05T21:09:40.093Z,9.31
2022-11-05T21:12:12.326Z,9.28
2022-11-05T21:14:39.923Z,9.26
2022-11-05T21:17:09.870Z,9.20
2022-11-05T21:19:36.354Z,9.18
2022-11-05T21:22:03.860Z,9.18
2022-11-05T21:24:31.169Z,9.16
2022-11-05T21:26:57.542Z,9.14
2022-11-05T21:29:23.847Z,9.12
2022-11-05T21:31:50.759Z,9.12
2022-11-05T21:34:17.853Z,9.10
2022-11-05T21:36:44.417Z,9.10
2022-11-05T21:39:13.755Z,9.10
2022-11-05T21:41:40.312Z,9.13
2022-11-05T21:44:06.614Z,9.16
2022-11-05T21:46:33.165Z,9.19
2022-11-05T21:48:59.486Z,9.20
2022-11-05T21:51:44.474Z,9.21
2022-11-05T21:54:29.595Z,9.21
2022-11-05T21:57:14.401Z,9.23
2022-11-05T21:59:51.289Z,9.26
2022-11-05T22:02:21.091Z,9.26
2022-11-05T22:04:52.769Z,9.27
2022-11-05T22:07:22.284Z,9.28
2022-11-05T22:09:48.777Z,9.27
2022-11-05T22:12:15.624Z,9.28
2022-11-05T22:14:42.389Z,9.29
2022-11-05T22:17:09.711Z,9.30
2022-11-05T22:19:36.458Z,9.28
2022-11-05T22:22:05.088Z,9.30
2022-11-05T22:24:32.046Z,9.29
2022-11-05T22:27:00.310Z,9.27
2022-11-05T22:29:27.344Z,9.28
2022-11-05T22:31:55.066Z,9.25
2022-11-05T22:34:21.631Z,9.23
2022-11-05T22:36:48.001Z,9.25
2022-11-05T22:39:14.570Z,9.26
2022-11-05T22:41:41.576Z,9.28
2022-11-05T22:44:10.182Z,9.29
2022-11-05T22:46:37.796Z,9.31
2022-11-05T22:49:04.314Z,9.31
2022-11-05T22:51:32.874Z,9.32
2022-11-05T22:54:00.142Z,9.32
2022-11-05T22:56:28.989Z,9.32
2022-11-05T22:58:55.914Z,9.33
2022-11-05T23:01:23.449Z,9.33
2022-11-05T23:03:51.833Z,9.34
2022-11-05T23:06:40.447Z,9.35
2022-11-05T23:09:43.957Z,9.35
2022-11-05T23:12:32.269Z,9.34
2022-11-05T23:15:00.603Z,9.34
2022-11-05T23:17:46.158Z,9.32
2022-11-05T23:20:34.510Z,9.32
2022-11-05T23:23:19.389Z,9.33
2022-11-05T23:25:46.193Z,9.31
2022-11-05T23:28:13.143Z,9.28
2022-11-05T23:31:02.512Z,9.28
2022-11-05T23:33:33.148Z,9.25
2022-11-05T23:36:18.464Z,9.23
2022-11-05T23:38:44.793Z,9.21
2022-11-05T23:41:29.748Z,9.21
2022-11-05T23:44:14.992Z,9.18
2022-11-05T23:46:59.562Z,9.16
2022-11-05T23:49:26.130Z,9.13
2022-11-05T23:51:52.480Z,9.07
2022-11-05T23:54:18.789Z,9.08
2022-11-05T23:56:45.752Z,9.09
2022-11-05T23:59:12.047Z,9.08
